METAR Data
IDs: Format: Raw Decoded Include TAF

Data at: 1022 UTC 18 Jan 2022

KHDN 180956Z AUTO 09008KT 10SM CLR M07/M14 A3000 RMK AO2 SLP192 T10671139 FZRANO
KHDN 180856Z AUTO 10011KT 10SM CLR M07/M14 A3000 RMK AO2 SLP199 T10721139 55007 FZRANO
KHDN 180756Z AUTO 11009KT 10SM CLR M07/M14 A3000 RMK AO2 SLP198 T10721139 FZRANO
KHDN 180656Z AUTO 11011KT 10SM CLR M07/M13 A3002 RMK AO2 SLP204 T10671133 400001111 FZRANO
KHDN 180556Z AUTO 12010KT 10SM CLR M07/M13 A3003 RMK AO2 SLP211 T10671128 11022 21083 56009 FZRANO
KHDN 180456Z AUTO 11011KT 10SM CLR M06/M13 A3003 RMK AO2 SLP215 T10561128 FZRANO
KHDN 180356Z AUTO 10010KT 10SM CLR M05/M13 A3004 RMK AO2 SLP220 T10501128 FZRANO
KHDN 180256Z AUTO 11005KT 10SM CLR M06/M13 A3006 RMK AO2 SLP235 T10561128 53004 FZRANO
KHDN 180156Z AUTO 12004KT 10SM CLR M06/M13 A3005 RMK AO2 SLP233 T10561128 FZRANO
KHDN 180056Z AUTO VRB03KT 10SM CLR M06/M12 A3004 RMK AO2 SLP233 T10611117 FZRANO
KHDN 172356Z AUTO 09004KT 10SM CLR M02/M11 A3004 RMK AO2 SLP220 T10221106 10000 21050 56011 FZRANO
KHDN 172256Z AUTO 08008KT 10SM CLR M01/M11 A3005 RMK AO2 SLP215 T10061106 FZRANO
KHDN 172156Z AUTO 00000KT 10SM CLR M02/M11 A3007 RMK AO2 SLP227 T10171106 FZRANO
KHDN 172056Z AUTO VRB03KT 10SM CLR M03/M10 A3008 RMK AO2 SLP231 T10281100 58023 FZRANO
KHDN 171956Z AUTO 00000KT 10SM CLR M03/M10 A3012 RMK AO2 SLP245 T10331100 FZRANO
KHDN 171856Z AUTO 12006KT 10SM CLR M03/M11 A3014 RMK AO2 SLP252 T10331106 FZRANO
KHDN 171756Z AUTO 12008KT 10SM CLR M05/M13 A3017 RMK AO2 SLP261 T10501128 11050 21111 50002 FZRANO
KHDN 171656Z AUTO 13008KT 10SM CLR M07/M14 A3017 RMK AO2 SLP273 T10721139 FZRANO
KHDN 171556Z AUTO 11011KT 10SM CLR M08/M15 A3017 RMK AO2 SLP268 T10781150 FZRANO
KHDN 171456Z AUTO 11013KT 10SM CLR M11/M16 A3016 RMK AO2 SLP277 T11061156 55001 FZRANO
KHDN 171356Z AUTO 10012KT 10SM CLR M10/M16 A3015 RMK AO2 SLP269 T11001161 FZRANO
KHDN 171256Z AUTO 11011KT 10SM CLR M11/M16 A3016 RMK AO2 SLP268 T11111161 FZRANO
KHDN 171156Z AUTO 11013KT 10SM CLR M10/M16 A3016 RMK AO2 SLP266 T11001156 11072 21106 58010 FZRANO
KHDN 171056Z AUTO 11012KT 10SM CLR M10/M16 A3017 RMK AO2 SLP267 T11001156 FZRANO
KHDN 170956Z AUTO 11011KT 10SM CLR M10/M16 A3020 RMK AO2 SLP284 T11001156 FZRANO
KHDN 170856Z AUTO 11012KT 10SM CLR M08/M14 A3020 RMK AO2 SLP269 T10831144 58003 FZRANO
KHDN 170756Z AUTO 10014KT 10SM CLR M08/M14 A3021 RMK AO2 SLP274 T10781139 FZRANO
KHDN 170656Z AUTO 10012KT 10SM CLR M08/M14 A3021 RMK AO2 SLP280 T10781139 410171128 FZRANO
KHDN 170556Z AUTO 10010KT 10SM CLR M07/M13 A3021 RMK AO2 SLP280 T10671133 11033 21083 55002 FZRANO
KHDN 170456Z AUTO 10011KT 10SM CLR M07/M13 A3021 RMK AO2 SLP289 T10721133 FZRANO
KHDN 170356Z AUTO 10013KT 10SM CLR M06/M13 A3022 RMK AO2 SLP295 T10611128 FZRANO
KHDN 170256Z AUTO 13010KT 10SM CLR M07/M13 A3022 RMK AO2 SLP303 T10721128 50002 FZRANO
KHDN 170156Z AUTO 11011KT 10SM CLR M06/M13 A3023 RMK AO2 SLP298 T10561128 FZRANO
KHDN 170056Z AUTO 10004KT 10SM CLR M03/M12 A3021 RMK AO2 SLP285 T10331117 FZRANO
KHDN 162356Z AUTO 10007KT 10SM CLR M03/M11 A3021 RMK AO2 SLP284 T10331106 11017 21067 56003 FZRANO
KHDN 162256Z AUTO 00000KT 10SM CLR M02/M09 A3022 RMK AO2 SLP283 T10221094 FZRANO